Terminal Aerodrome Forecast
Issued by NWS

Home | Current Version | Previous Version | Text Only | Print | Product List | Glossary On
Versions: 1 2 3 4 5 6 7 8 9 10
000
FTUS43 KTOP 262300
TAFMHK
TAF
KMHK 262320Z 2700/2724 03006KT 2SM -DZ BR OVC005
     FM270300 01006KT 4SM -SN BR OVC009
     FM270800 32008KT P6SM OVC007
     FM271100 32008KT P6SM BKN040=

USA.gov is the U.S. government's official web portal to all federal, state and local government web resources and services.